createdAt,value
2024-02-09T00:00:47.906Z,85.58
2024-02-09T00:03:15.412Z,85.65
2024-02-09T00:05:42.936Z,85.44
2024-02-09T00:08:12.155Z,85.45
2024-02-09T00:10:39.891Z,85.41
2024-02-09T00:13:09.870Z,85.44
2024-02-09T00:15:37.331Z,85.39
2024-02-09T00:18:05.369Z,85.30
2024-02-09T00:20:34.289Z,85.31
2024-02-09T00:23:01.877Z,85.43
2024-02-09T00:25:29.649Z,85.32
2024-02-09T00:27:58.434Z,85.43
2024-02-09T00:30:26.582Z,85.46
2024-02-09T00:32:54.212Z,85.61
2024-02-09T00:35:26.987Z,85.47
2024-02-09T00:37:58.722Z,85.54
2024-02-09T00:40:26.229Z,85.58
2024-02-09T00:42:53.731Z,85.59
2024-02-09T00:45:22.450Z,85.68
2024-02-09T00:47:49.965Z,85.65
2024-02-09T00:50:17.440Z,85.58
2024-02-09T00:52:46.559Z,85.65
2024-02-09T00:55:14.144Z,85.65
2024-02-09T00:57:41.654Z,85.77
2024-02-09T01:00:10.518Z,85.61
2024-02-09T01:02:38.184Z,85.52
2024-02-09T01:05:05.901Z,85.51
2024-02-09T01:07:34.937Z,85.48
2024-02-09T01:10:02.618Z,85.46
2024-02-09T01:12:30.220Z,85.54
2024-02-09T01:14:59.041Z,85.52
2024-02-09T01:17:26.657Z,85.49
2024-02-09T01:19:54.144Z,85.67
2024-02-09T01:22:22.993Z,85.38
2024-02-09T01:24:50.432Z,85.27
2024-02-09T01:27:17.947Z,85.19
2024-02-09T01:29:46.631Z,85.07
2024-02-09T01:32:14.394Z,85.00
2024-02-09T01:34:42.096Z,84.95
2024-02-09T01:37:10.944Z,85.08
2024-02-09T01:39:38.395Z,85.01
2024-02-09T01:42:05.829Z,84.92
2024-02-09T01:44:34.641Z,84.94
2024-02-09T01:47:02.166Z,84.85
2024-02-09T01:49:29.742Z,84.84
2024-02-09T01:51:58.699Z,84.84
2024-02-09T01:54:26.723Z,84.94
2024-02-09T01:56:54.351Z,84.87
2024-02-09T01:59:23.176Z,84.83
2024-02-09T02:01:50.625Z,84.94
2024-02-09T02:04:18.131Z,84.88
2024-02-09T02:06:46.972Z,85.03
2024-02-09T02:09:14.505Z,84.75
2024-02-09T02:11:42.005Z,84.76
2024-02-09T02:14:10.776Z,85.02
2024-02-09T02:16:38.781Z,85.08
2024-02-09T02:19:06.451Z,85.04
2024-02-09T02:21:35.333Z,84.78
2024-02-09T02:24:02.802Z,84.75
2024-02-09T02:26:30.328Z,84.58
2024-02-09T02:28:59.072Z,84.64
2024-02-09T02:31:26.583Z,84.58
2024-02-09T02:33:54.209Z,84.69
2024-02-09T02:36:23.417Z,84.78
2024-02-09T02:38:50.951Z,84.76
2024-02-09T02:41:18.611Z,84.76
2024-02-09T02:43:47.354Z,84.47
2024-02-09T02:46:14.808Z,84.67
2024-02-09T02:48:42.345Z,84.61
2024-02-09T02:51:11.084Z,84.33
2024-02-09T02:53:38.583Z,84.45
2024-02-09T02:56:06.049Z,84.45
2024-02-09T02:58:35.221Z,84.34
2024-02-09T03:01:02.927Z,84.53
2024-02-09T03:03:32.606Z,84.48
2024-02-09T03:06:00.170Z,84.40
2024-02-09T03:10:59.247Z,84.16
2024-02-09T03:13:26.774Z,84.03
2024-02-09T03:15:54.944Z,83.86
2024-02-09T03:18:23.909Z,83.74
2024-02-09T03:20:51.367Z,83.72
2024-02-09T03:23:18.831Z,83.57
2024-02-09T03:25:47.416Z,83.79
2024-02-09T03:28:14.873Z,83.69
2024-02-09T03:30:42.308Z,83.73
2024-02-09T03:33:11.171Z,83.58
2024-02-09T03:35:38.928Z,83.71
2024-02-09T03:38:06.414Z,83.73
2024-02-09T03:40:35.465Z,83.81
2024-02-09T03:43:03.028Z,83.94
2024-02-09T03:45:30.718Z,83.77
2024-02-09T03:48:00.008Z,83.95
2024-02-09T03:50:27.470Z,84.03
2024-02-09T03:52:54.908Z,83.85
2024-02-09T03:55:23.609Z,83.95
2024-02-09T03:57:51.070Z,83.90
2024-02-09T04:00:18.535Z,83.84
2024-02-09T04:02:47.739Z,83.78
2024-02-09T04:05:15.817Z,83.78
2024-02-09T04:07:45.684Z,83.71
2024-02-09T04:10:33.137Z,83.83
2024-02-09T04:13:02.204Z,83.77
2024-02-09T04:15:29.800Z,83.79
2024-02-09T04:17:57.421Z,83.94
2024-02-09T04:20:26.121Z,83.81
2024-02-09T04:22:53.684Z,83.96
2024-02-09T04:25:21.320Z,83.97
2024-02-09T04:27:50.416Z,83.96
2024-02-09T04:30:17.908Z,83.62
2024-02-09T04:32:45.401Z,83.78
2024-02-09T04:35:14.264Z,83.84
2024-02-09T04:37:41.925Z,83.82
2024-02-09T04:40:09.467Z,83.78
2024-02-09T04:42:38.211Z,83.74
2024-02-09T04:45:05.723Z,83.79
2024-02-09T04:47:33.259Z,83.85
2024-02-09T04:50:02.520Z,83.74
2024-02-09T04:52:30.054Z,83.68
2024-02-09T04:54:57.553Z,83.56
2024-02-09T04:57:26.335Z,83.62
2024-02-09T04:59:53.764Z,83.61
2024-02-09T05:02:21.199Z,83.50
2024-02-09T05:04:50.110Z,83.72
2024-02-09T05:07:17.751Z,83.76
2024-02-09T05:09:45.203Z,83.69
2024-02-09T05:12:14.316Z,83.78
2024-02-09T05:14:41.754Z,83.81
2024-02-09T05:17:09.220Z,83.93
2024-02-09T05:19:38.163Z,83.92
2024-02-09T05:22:05.912Z,83.93
2024-02-09T05:24:33.419Z,84.01
2024-02-09T05:27:02.215Z,83.88
2024-02-09T05:29:29.848Z,83.80
2024-02-09T05:31:57.707Z,83.84
2024-02-09T05:34:26.496Z,83.77
2024-02-09T05:36:53.960Z,83.84
2024-02-09T05:39:21.426Z,83.92
2024-02-09T05:41:50.157Z,83.79
2024-02-09T05:44:17.619Z,83.90
2024-02-09T05:46:45.183Z,83.95
2024-02-09T05:49:14.102Z,84.05
2024-02-09T05:51:41.671Z,83.96
2024-02-09T05:54:09.302Z,84.15
2024-02-09T05:56:38.044Z,84.24
2024-02-09T05:59:06.746Z,84.26
2024-02-09T06:01:36.994Z,84.08
2024-02-09T06:04:04.728Z,83.97
2024-02-09T06:06:32.432Z,84.20
2024-02-09T06:09:01.248Z,83.98
2024-02-09T06:11:28.709Z,83.90
2024-02-09T06:13:56.527Z,83.83
2024-02-09T06:16:25.272Z,83.84
2024-02-09T06:18:52.748Z,83.87
2024-02-09T06:21:20.576Z,84.06
2024-02-09T06:23:49.474Z,83.87
2024-02-09T06:26:16.997Z,83.77
2024-02-09T06:28:44.870Z,83.77
2024-02-09T06:31:13.888Z,83.77
2024-02-09T06:33:41.796Z,83.82
2024-02-09T06:36:09.293Z,83.84
2024-02-09T06:38:38.015Z,83.88
2024-02-09T06:41:05.525Z,83.85
2024-02-09T06:43:32.858Z,83.77
2024-02-09T06:46:03.984Z,83.48
2024-02-09T06:48:32.156Z,83.47
2024-02-09T06:51:00.894Z,83.52
2024-02-09T06:53:28.208Z,83.43
2024-02-09T06:55:55.666Z,83.53
2024-02-09T06:58:24.375Z,83.57
2024-02-09T07:00:52.232Z,83.44
2024-02-09T07:03:19.741Z,83.36
2024-02-09T07:05:48.670Z,83.31
2024-02-09T07:08:16.149Z,83.47
2024-02-09T07:10:43.670Z,83.53
2024-02-09T07:13:12.478Z,83.43
2024-02-09T07:15:39.970Z,83.29
2024-02-09T07:18:07.498Z,83.10
2024-02-09T07:20:36.355Z,83.01
2024-02-09T07:23:03.980Z,83.22
2024-02-09T07:25:31.512Z,83.14
2024-02-09T07:28:00.259Z,83.03
2024-02-09T07:30:27.880Z,82.86
2024-02-09T07:32:55.432Z,82.73
2024-02-09T07:35:24.334Z,82.58
2024-02-09T07:37:51.844Z,82.61
2024-02-09T07:40:19.419Z,82.78
2024-02-09T07:42:48.212Z,82.68
2024-02-09T07:45:16.026Z,82.71
2024-02-09T07:47:43.521Z,82.42
2024-02-09T07:50:12.294Z,82.23
2024-02-09T07:52:39.868Z,82.08
2024-02-09T07:55:08.663Z,82.10
2024-02-09T07:57:37.792Z,81.93
2024-02-09T08:00:05.259Z,82.01
2024-02-09T08:02:32.742Z,82.11
2024-02-09T08:05:01.548Z,82.17
2024-02-09T08:07:29.558Z,81.97
2024-02-09T08:09:56.995Z,81.80
2024-02-09T08:12:25.692Z,81.81
2024-02-09T08:14:53.155Z,81.77
2024-02-09T08:17:20.627Z,81.92
2024-02-09T08:19:49.602Z,81.82
2024-02-09T08:22:17.154Z,81.80
2024-02-09T08:24:44.733Z,81.75
2024-02-09T08:27:13.762Z,81.61
2024-02-09T08:29:42.708Z,81.34
2024-02-09T08:32:12.698Z,80.98
2024-02-09T08:34:40.181Z,80.85
2024-02-09T08:37:07.684Z,80.64
2024-02-09T08:39:36.450Z,80.58
2024-02-09T08:42:03.917Z,80.57
2024-02-09T08:44:31.367Z,80.57
2024-02-09T08:47:00.189Z,80.71
2024-02-09T08:49:28.115Z,80.84
2024-02-09T08:51:55.782Z,80.88
2024-02-09T08:54:24.652Z,80.72
2024-02-09T08:56:52.102Z,80.80
2024-02-09T08:59:19.525Z,80.87
2024-02-09T09:01:48.333Z,81.24
2024-02-09T09:04:16.505Z,81.57
2024-02-09T09:06:46.559Z,81.67
2024-02-09T09:09:14.029Z,82.12
2024-02-09T09:11:41.864Z,82.17
2024-02-09T09:14:10.572Z,82.35
2024-02-09T09:16:38.019Z,82.36
2024-02-09T09:19:05.543Z,82.27
2024-02-09T09:21:34.368Z,82.29
2024-02-09T09:24:01.809Z,82.43
2024-02-09T09:26:29.983Z,82.43
2024-02-09T09:28:58.875Z,82.61
2024-02-09T09:31:26.655Z,82.70
2024-02-09T09:33:54.097Z,82.81
2024-02-09T09:36:22.838Z,82.87
2024-02-09T09:38:50.344Z,83.09
2024-02-09T09:41:17.909Z,83.06
2024-02-09T09:43:46.720Z,83.06
2024-02-09T09:46:14.421Z,83.20
2024-02-09T09:48:42.289Z,83.01
2024-02-09T09:51:11.042Z,82.83
2024-02-09T09:53:38.421Z,82.57
2024-02-09T09:56:05.866Z,82.40
2024-02-09T09:58:34.678Z,82.25
2024-02-09T10:01:02.294Z,82.23
2024-02-09T10:03:29.810Z,82.15
2024-02-09T10:05:58.980Z,82.30
2024-02-09T10:08:26.686Z,82.17
2024-02-09T10:10:56.690Z,82.08
2024-02-09T10:13:24.195Z,81.94
2024-02-09T10:15:51.707Z,81.85
2024-02-09T10:18:20.962Z,81.53
2024-02-09T10:20:48.548Z,81.25
2024-02-09T10:23:16.014Z,80.94
2024-02-09T10:25:44.629Z,80.94
2024-02-09T10:28:12.148Z,80.96
2024-02-09T10:30:39.701Z,80.73
2024-02-09T10:33:08.521Z,80.69
2024-02-09T10:35:36.212Z,80.76
2024-02-09T10:38:03.865Z,80.75
2024-02-09T10:40:32.992Z,80.56
2024-02-09T10:43:00.653Z,80.55
2024-02-09T10:45:28.112Z,80.40
2024-02-09T10:47:56.989Z,80.25
2024-02-09T10:50:24.544Z,80.03
2024-02-09T10:52:52.270Z,79.85
2024-02-09T10:55:21.231Z,79.74
2024-02-09T10:57:48.715Z,79.59
2024-02-09T11:00:16.164Z,79.54
2024-02-09T11:02:45.303Z,79.47
2024-02-09T11:05:12.940Z,79.30
2024-02-09T11:07:40.655Z,79.16
2024-02-09T11:10:09.435Z,79.06
2024-02-09T11:12:36.844Z,79.19
2024-02-09T11:15:04.268Z,79.26
2024-02-09T11:17:33.101Z,79.21
2024-02-09T11:20:00.638Z,79.26
2024-02-09T11:22:28.115Z,79.31
2024-02-09T11:24:56.868Z,79.25
2024-02-09T11:27:24.327Z,79.15
2024-02-09T11:29:51.828Z,79.15
2024-02-09T11:32:20.576Z,79.06
2024-02-09T11:34:48.106Z,78.87
2024-02-09T11:37:15.719Z,78.87
2024-02-09T11:39:44.468Z,78.84
2024-02-09T11:42:11.924Z,78.67
2024-02-09T11:44:39.364Z,78.54
2024-02-09T11:47:08.119Z,78.32
2024-02-09T11:49:35.787Z,78.04
2024-02-09T11:52:03.360Z,77.74
2024-02-09T11:54:32.216Z,77.68
2024-02-09T11:56:59.656Z,77.28
2024-02-09T11:59:27.178Z,77.22
2024-02-09T12:01:55.973Z,76.83
2024-02-09T12:04:23.939Z,76.80
2024-02-09T12:06:51.774Z,76.76
2024-02-09T12:09:20.725Z,76.89
2024-02-09T12:11:48.214Z,76.74
2024-02-09T12:14:15.897Z,76.83
2024-02-09T12:16:44.847Z,76.74
2024-02-09T12:19:12.577Z,76.67
2024-02-09T12:21:40.347Z,76.73
2024-02-09T12:24:09.170Z,76.71
2024-02-09T12:26:36.643Z,76.71
2024-02-09T12:29:04.168Z,76.84
2024-02-09T12:31:32.912Z,76.39
2024-02-09T12:34:00.464Z,76.27
2024-02-09T12:36:27.942Z,76.23
2024-02-09T12:38:56.775Z,76.17
2024-02-09T12:41:24.226Z,76.17
2024-02-09T12:43:51.751Z,76.06
2024-02-09T12:46:20.999Z,76.16
2024-02-09T12:48:48.610Z,76.23
2024-02-09T12:51:16.187Z,76.07
2024-02-09T12:53:44.870Z,75.89
2024-02-09T12:56:12.444Z,75.81
2024-02-09T12:58:40.275Z,75.48
2024-02-09T13:01:09.341Z,75.24
2024-02-09T13:03:36.908Z,74.96
2024-02-09T13:06:04.556Z,74.91
2024-02-09T13:08:33.372Z,74.71
2024-02-09T13:11:01.209Z,74.54
2024-02-09T13:13:28.931Z,74.36
2024-02-09T13:15:57.953Z,74.26
2024-02-09T13:18:25.543Z,74.25
2024-02-09T13:20:53.007Z,74.01
2024-02-09T13:23:23.447Z,73.93
2024-02-09T13:25:51.907Z,74.01
2024-02-09T13:28:20.784Z,74.15
2024-02-09T13:30:48.335Z,74.21
2024-02-09T13:33:15.850Z,74.20
2024-02-09T13:35:44.720Z,74.17
2024-02-09T13:38:12.160Z,74.33
2024-02-09T13:40:39.909Z,74.62
2024-02-09T13:43:08.695Z,74.71
2024-02-09T13:45:36.183Z,74.80
2024-02-09T13:48:03.677Z,75.02
2024-02-09T13:50:32.423Z,75.46
2024-02-09T13:52:59.879Z,75.86
2024-02-09T13:55:27.737Z,76.05
2024-02-09T13:57:56.534Z,76.32
2024-02-09T14:00:24.079Z,76.50
2024-02-09T14:02:51.610Z,76.89
2024-02-09T14:05:20.669Z,77.18
2024-02-09T14:07:48.495Z,77.39
2024-02-09T14:10:16.056Z,77.36
2024-02-09T14:12:44.762Z,77.52
2024-02-09T14:15:12.530Z,77.58
2024-02-09T14:17:40.515Z,77.44
2024-02-09T14:20:09.331Z,77.69
2024-02-09T14:22:38.270Z,77.62
2024-02-09T14:25:08.188Z,77.72
2024-02-09T14:27:35.636Z,77.82
2024-02-09T14:30:03.089Z,77.91
2024-02-09T14:32:31.806Z,78.04
2024-02-09T14:34:59.342Z,78.17
2024-02-09T14:37:27.189Z,78.38
2024-02-09T14:39:56.017Z,78.53
2024-02-09T14:42:23.564Z,78.60
2024-02-09T14:44:51.026Z,78.83
2024-02-09T14:47:19.772Z,79.04
2024-02-09T14:49:49.387Z,79.22
2024-02-09T14:52:18.840Z,79.48
2024-02-09T14:54:46.791Z,79.76
2024-02-09T14:57:15.121Z,80.06
2024-02-09T14:59:44.148Z,80.24
2024-02-09T15:02:11.620Z,80.56
2024-02-09T15:04:39.972Z,80.69
2024-02-09T15:07:08.843Z,80.92
2024-02-09T15:09:36.258Z,80.93
2024-02-09T15:12:03.891Z,80.77
2024-02-09T15:14:32.612Z,80.63
2024-02-09T15:17:00.079Z,80.42
2024-02-09T15:19:28.115Z,80.35
2024-02-09T15:21:57.005Z,80.15
2024-02-09T15:24:24.683Z,80.21
2024-02-09T15:26:52.297Z,80.16
2024-02-09T15:29:21.012Z,80.08
2024-02-09T15:31:48.665Z,80.01
2024-02-09T15:34:16.159Z,80.03
2024-02-09T15:36:44.908Z,80.04
2024-02-09T15:39:12.759Z,80.03
2024-02-09T15:41:40.234Z,79.84
2024-02-09T15:44:08.945Z,79.69
2024-02-09T15:46:36.386Z,79.47
2024-02-09T15:49:03.976Z,79.40
2024-02-09T15:51:32.816Z,79.26
2024-02-09T15:54:00.148Z,79.20
2024-02-09T15:56:27.618Z,79.29
2024-02-09T15:58:56.361Z,79.15
2024-02-09T16:01:24.243Z,79.11
2024-02-09T16:03:51.733Z,79.11
2024-02-09T16:06:20.664Z,79.00
2024-02-09T16:08:48.135Z,79.00
2024-02-09T16:11:15.613Z,79.00
2024-02-09T16:13:44.240Z,78.84
2024-02-09T16:16:11.832Z,78.80
2024-02-09T16:18:39.542Z,78.85
2024-02-09T16:21:08.315Z,78.74
2024-02-09T16:23:35.750Z,78.73
2024-02-09T16:26:05.930Z,78.73
2024-02-09T16:28:35.138Z,78.79
2024-02-09T16:31:02.662Z,78.64
2024-02-09T16:33:30.152Z,78.62
2024-02-09T16:35:58.976Z,78.61
2024-02-09T16:38:26.465Z,78.60
2024-02-09T16:40:53.980Z,78.47
2024-02-09T16:43:22.750Z,78.46
2024-02-09T16:45:50.167Z,78.40
2024-02-09T16:48:18.107Z,78.43
2024-02-09T16:50:46.842Z,78.31
2024-02-09T16:53:16.392Z,78.21
2024-02-09T16:55:46.314Z,78.23
2024-02-09T16:58:13.888Z,78.15
2024-02-09T17:00:41.368Z,77.95
2024-02-09T17:03:10.116Z,77.86
2024-02-09T17:05:37.782Z,77.86
2024-02-09T17:08:05.469Z,77.92
2024-02-09T17:10:34.665Z,77.84
2024-02-09T17:13:02.142Z,77.85
2024-02-09T17:15:29.602Z,77.82
2024-02-09T17:17:58.391Z,77.79
2024-02-09T17:20:25.878Z,77.88
2024-02-09T17:22:53.645Z,78.07
2024-02-09T17:25:22.543Z,77.85
2024-02-09T17:27:50.111Z,77.89
2024-02-09T17:30:17.850Z,77.84
2024-02-09T17:32:46.652Z,77.66
2024-02-09T17:35:14.211Z,77.56
2024-02-09T17:37:41.933Z,77.31
2024-02-09T17:40:10.726Z,77.34
2024-02-09T17:42:38.175Z,77.31
2024-02-09T17:45:05.699Z,77.16
2024-02-09T17:47:34.686Z,77.19
2024-02-09T17:50:02.394Z,77.25
2024-02-09T17:52:30.418Z,77.24
2024-02-09T17:54:59.129Z,77.27
2024-02-09T17:57:26.576Z,77.21
2024-02-09T17:59:54.013Z,77.23
2024-02-09T18:02:22.935Z,77.20
2024-02-09T18:04:50.648Z,77.21
2024-02-09T18:07:18.288Z,77.20
2024-02-09T18:09:47.030Z,77.21
2024-02-09T18:12:14.956Z,77.20
2024-02-09T18:14:42.464Z,77.17
2024-02-09T18:17:11.229Z,77.09
2024-02-09T18:19:38.750Z,77.14
2024-02-09T18:22:06.665Z,77.09
2024-02-09T18:24:35.366Z,77.13
2024-02-09T18:27:02.905Z,77.07
2024-02-09T18:29:30.336Z,77.03
2024-02-09T18:31:59.601Z,77.12
2024-02-09T18:34:27.463Z,77.16
2024-02-09T18:36:57.309Z,77.27
2024-02-09T18:39:24.768Z,77.27
2024-02-09T18:41:52.268Z,77.35
2024-02-09T18:44:20.991Z,77.48
2024-02-09T18:46:48.721Z,77.55
2024-02-09T18:49:16.442Z,77.62
2024-02-09T18:51:45.359Z,77.93
2024-02-09T18:54:12.712Z,78.06
2024-02-09T18:56:40.149Z,78.20
2024-02-09T18:59:08.881Z,78.26
2024-02-09T19:01:36.317Z,78.35
2024-02-09T19:04:03.786Z,78.42
2024-02-09T19:06:32.563Z,78.59
2024-02-09T19:09:00.035Z,78.65
2024-02-09T19:11:27.574Z,78.77
2024-02-09T19:13:56.663Z,78.81
2024-02-09T19:16:24.206Z,78.85
2024-02-09T19:18:51.698Z,78.85
2024-02-09T19:21:20.455Z,78.83
2024-02-09T19:23:47.800Z,78.82
2024-02-09T19:26:15.251Z,78.78
2024-02-09T19:28:43.984Z,78.83
2024-02-09T19:31:11.525Z,78.82
2024-02-09T19:33:38.844Z,78.79
2024-02-09T19:36:07.581Z,78.83
2024-02-09T19:38:35.368Z,78.82
2024-02-09T19:41:02.875Z,78.80
2024-02-09T19:43:31.840Z,78.85
2024-02-09T19:45:59.329Z,78.87
2024-02-09T19:48:26.887Z,78.87
2024-02-09T19:50:55.777Z,78.93
2024-02-09T19:53:23.243Z,78.88
2024-02-09T19:55:50.705Z,78.98
2024-02-09T19:58:19.646Z,78.99
2024-02-09T20:04:12.705Z,79.11
2024-02-09T20:06:39.597Z,79.17
2024-02-09T20:09:07.101Z,79.11
2024-02-09T20:11:35.769Z,79.32
2024-02-09T20:14:02.710Z,79.29
2024-02-09T20:16:29.518Z,79.47
2024-02-09T20:18:58.122Z,79.49
2024-02-09T20:21:24.864Z,79.55
2024-02-09T20:23:51.608Z,79.57
2024-02-09T20:26:19.645Z,79.73
2024-02-09T20:28:46.520Z,79.82
2024-02-09T20:31:13.305Z,79.95
2024-02-09T20:33:41.193Z,80.00
2024-02-09T20:36:07.992Z,80.12
2024-02-09T20:38:34.808Z,80.20
2024-02-09T20:41:03.409Z,80.32
2024-02-09T20:43:30.337Z,80.44
2024-02-09T20:45:57.218Z,80.50
2024-02-09T20:48:25.434Z,80.62
2024-02-09T20:50:52.307Z,80.71
2024-02-09T20:53:19.051Z,80.72
2024-02-09T20:55:47.148Z,80.95
2024-02-09T20:58:13.950Z,80.89
2024-02-09T21:00:41.767Z,80.87
2024-02-09T21:03:10.206Z,80.91
2024-02-09T21:05:37.635Z,81.01
2024-02-09T21:08:04.686Z,81.16
2024-02-09T21:10:32.958Z,81.16
2024-02-09T21:12:59.857Z,81.18
2024-02-09T21:15:26.670Z,81.16
2024-02-09T21:17:54.734Z,81.29
2024-02-09T21:20:21.816Z,81.26
2024-02-09T21:22:48.877Z,81.33
2024-02-09T21:25:17.516Z,81.41
2024-02-09T21:27:44.246Z,81.44
2024-02-09T21:30:11.111Z,81.48
2024-02-09T21:32:39.165Z,81.54
2024-02-09T21:35:06.005Z,81.61
2024-02-09T21:37:32.860Z,81.60
2024-02-09T21:40:00.915Z,81.67
2024-02-09T21:42:27.682Z,81.67
2024-02-09T21:44:54.785Z,81.67
2024-02-09T21:47:22.869Z,81.63
2024-02-09T21:49:49.675Z,81.77
2024-02-09T21:52:16.642Z,81.69
2024-02-09T21:54:44.663Z,81.62
2024-02-09T21:57:11.473Z,81.64
2024-02-09T21:59:38.197Z,81.60
2024-02-09T22:02:06.411Z,81.54
2024-02-09T22:04:33.220Z,81.49
2024-02-09T22:07:00.358Z,81.47
2024-02-09T22:09:28.398Z,81.47
2024-02-09T22:11:55.217Z,81.49
2024-02-09T22:14:21.951Z,81.35
2024-02-09T22:16:50.097Z,81.46
2024-02-09T22:19:17.192Z,81.45
2024-02-09T22:21:44.101Z,81.46
2024-02-09T22:24:12.159Z,81.50
2024-02-09T22:26:41.200Z,81.48
2024-02-09T22:29:10.470Z,81.48
2024-02-09T22:31:37.240Z,81.54
2024-02-09T22:34:04.046Z,81.58
2024-02-09T22:36:32.139Z,81.48
2024-02-09T22:38:58.921Z,81.46
2024-02-09T22:41:25.690Z,81.52
2024-02-09T22:43:53.763Z,81.46
2024-02-09T22:46:20.503Z,81.41
2024-02-09T22:48:47.725Z,81.37
2024-02-09T22:51:15.754Z,81.34
2024-02-09T22:53:42.336Z,81.23
2024-02-09T22:56:09.077Z,81.17
2024-02-09T22:58:37.193Z,81.09
2024-02-09T23:01:04.121Z,81.08
2024-02-09T23:03:30.974Z,80.94
2024-02-09T23:05:59.103Z,80.93
2024-02-09T23:08:25.948Z,80.88
2024-02-09T23:10:52.703Z,80.73
2024-02-09T23:13:21.122Z,80.88
2024-02-09T23:15:47.909Z,80.84
2024-02-09T23:18:14.747Z,80.80
2024-02-09T23:20:42.807Z,80.79
2024-02-09T23:23:09.559Z,80.75
2024-02-09T23:25:36.299Z,80.85
2024-02-09T23:28:04.305Z,80.70
2024-02-09T23:30:31.010Z,80.65
2024-02-09T23:32:57.812Z,80.61
2024-02-09T23:35:26.022Z,80.53
2024-02-09T23:37:53.072Z,80.48
2024-02-09T23:40:19.957Z,80.47
2024-02-09T23:42:47.997Z,80.49
2024-02-09T23:45:14.788Z,80.42
2024-02-09T23:47:41.642Z,80.29
2024-02-09T23:50:09.894Z,80.30
2024-02-09T23:52:36.923Z,80.22
2024-02-09T23:55:04.046Z,80.22
2024-02-09T23:57:32.104Z,80.19
2024-02-09T23:59:58.944Z,80.23
